sensor_id;sensor_type;location;lat;lon;timestamp;pressure;altitude;pressure_sealevel;temperature;humidity
3428;BME280;1727;42.624;23.406;2023-04-01T00:00:24;93993.38;;;11.54;70.86
3428;BME280;1727;42.624;23.406;2023-04-01T00:02:50;93994.47;;;11.35;71.68
3428;BME280;1727;42.624;23.406;2023-04-01T00:05:17;93988.88;;;11.38;71.68
3428;BME280;1727;42.624;23.406;2023-04-01T00:07:44;93998.09;;;11.42;71.97
3428;BME280;1727;42.624;23.406;2023-04-01T00:10:13;93993.47;;;11.36;71.69
3428;BME280;1727;42.624;23.406;2023-04-01T00:12:40;93990.22;;;11.42;70.56
3428;BME280;1727;42.624;23.406;2023-04-01T00:15:09;93988.75;;;11.47;70.79
3428;BME280;1727;42.624;23.406;2023-04-01T00:17:36;93995.19;;;11.53;70.28
3428;BME280;1727;42.624;23.406;2023-04-01T00:20:04;93989.16;;;11.61;69.91
3428;BME280;1727;42.624;23.406;2023-04-01T00:22:30;93995.25;;;11.61;69.75
3428;BME280;1727;42.624;23.406;2023-04-01T00:24:58;93990.31;;;11.66;69.98
3428;BME280;1727;42.624;23.406;2023-04-01T00:27:26;93997.88;;;11.69;69.82
3428;BME280;1727;42.624;23.406;2023-04-01T00:29:53;93999.22;;;11.73;69.89
3428;BME280;1727;42.624;23.406;2023-04-01T00:32:20;93991.69;;;11.78;69.78
3428;BME280;1727;42.624;23.406;2023-04-01T00:34:50;93994.13;;;11.72;69.55
3428;BME280;1727;42.624;23.406;2023-04-01T00:37:17;93993.63;;;11.76;70.42
3428;BME280;1727;42.624;23.406;2023-04-01T00:39:43;93989.25;;;11.85;69.73
3428;BME280;1727;42.624;23.406;2023-04-01T00:42:11;93979.09;;;11.90;69.46
3428;BME280;1727;42.624;23.406;2023-04-01T00:44:41;93969.09;;;11.94;69.08
3428;BME280;1727;42.624;23.406;2023-04-01T00:47:08;93980.09;;;12.05;69.47
3428;BME280;1727;42.624;23.406;2023-04-01T00:49:37;93967.28;;;12.10;69.46
3428;BME280;1727;42.624;23.406;2023-04-01T00:52:07;93961.69;;;11.89;70.14
3428;BME280;1727;42.624;23.406;2023-04-01T00:54:36;93956.28;;;11.99;69.61
3428;BME280;1727;42.624;23.406;2023-04-01T00:57:05;93946.09;;;11.96;70.05
3428;BME280;1727;42.624;23.406;2023-04-01T00:59:43;93957.75;;;12.01;70.01
3428;BME280;1727;42.624;23.406;2023-04-01T01:02:12;93953.00;;;12.05;70.11
3428;BME280;1727;42.624;23.406;2023-04-01T01:04:40;93949.06;;;12.09;70.93
3428;BME280;1727;42.624;23.406;2023-04-01T01:07:14;93954.34;;;12.17;70.36
3428;BME280;1727;42.624;23.406;2023-04-01T01:09:52;93949.38;;;12.14;69.84
3428;BME280;1727;42.624;23.406;2023-04-01T01:12:27;93938.56;;;12.17;68.92
3428;BME280;1727;42.624;23.406;2023-04-01T01:15:04;93935.91;;;12.09;68.75
3428;BME280;1727;42.624;23.406;2023-04-01T01:17:40;93931.97;;;12.13;67.93
3428;BME280;1727;42.624;23.406;2023-04-01T01:20:22;93920.81;;;12.19;68.56
3428;BME280;1727;42.624;23.406;2023-04-01T01:26:03;93905.03;;;11.44;68.88
3428;BME280;1727;42.624;23.406;2023-04-01T01:28:44;93923.16;;;11.72;68.92
3428;BME280;1727;42.624;23.406;2023-04-01T01:31:20;93926.03;;;11.87;68.42
3428;BME280;1727;42.624;23.406;2023-04-01T01:34:08;93907.44;;;11.80;68.22
3428;BME280;1727;42.624;23.406;2023-04-01T01:36:43;93906.31;;;11.91;66.08
3428;BME280;1727;42.624;23.406;2023-04-01T01:39:12;93911.41;;;12.00;66.84
3428;BME280;1727;42.624;23.406;2023-04-01T01:41:42;93901.75;;;12.17;67.13
3428;BME280;1727;42.624;23.406;2023-04-01T01:44:13;93898.78;;;12.28;67.12
3428;BME280;1727;42.624;23.406;2023-04-01T01:46:43;93882.03;;;12.21;65.96
3428;BME280;1727;42.624;23.406;2023-04-01T01:49:11;93884.78;;;12.12;66.64
3428;BME280;1727;42.624;23.406;2023-04-01T01:51:42;93902.56;;;12.18;67.49
3428;BME280;1727;42.624;23.406;2023-04-01T01:54:12;93879.38;;;12.13;66.93
3428;BME280;1727;42.624;23.406;2023-04-01T01:56:41;93893.00;;;12.08;67.90
3428;BME280;1727;42.624;23.406;2023-04-01T01:59:11;93888.06;;;12.14;67.71
3428;BME280;1727;42.624;23.406;2023-04-01T02:01:41;93879.88;;;12.17;68.23
3428;BME280;1727;42.624;23.406;2023-04-01T02:04:10;93874.13;;;12.21;67.60
3428;BME280;1727;42.624;23.406;2023-04-01T02:06:44;93866.22;;;11.97;67.77
3428;BME280;1727;42.624;23.406;2023-04-01T02:09:13;93867.44;;;11.52;69.81
3428;BME280;1727;42.624;23.406;2023-04-01T02:11:41;93868.78;;;11.64;69.20
3428;BME280;1727;42.624;23.406;2023-04-01T02:14:14;93858.69;;;11.86;68.63
3428;BME280;1727;42.624;23.406;2023-04-01T02:16:45;93861.63;;;11.99;67.75
3428;BME280;1727;42.624;23.406;2023-04-01T02:19:16;93856.34;;;12.07;68.13
3428;BME280;1727;42.624;23.406;2023-04-01T02:21:49;93852.59;;;12.18;67.32
3428;BME280;1727;42.624;23.406;2023-04-01T02:24:17;93849.31;;;12.24;66.92
3428;BME280;1727;42.624;23.406;2023-04-01T02:26:48;93852.91;;;12.23;66.46
3428;BME280;1727;42.624;23.406;2023-04-01T02:29:18;93846.34;;;12.19;67.28
3428;BME280;1727;42.624;23.406;2023-04-01T02:31:46;93834.19;;;12.18;67.38
3428;BME280;1727;42.624;23.406;2023-04-01T02:34:13;93845.53;;;12.18;67.07
3428;BME280;1727;42.624;23.406;2023-04-01T02:36:40;93848.31;;;12.25;67.31
3428;BME280;1727;42.624;23.406;2023-04-01T02:39:09;93834.34;;;12.24;66.47
3428;BME280;1727;42.624;23.406;2023-04-01T02:41:39;93838.94;;;12.30;66.35
3428;BME280;1727;42.624;23.406;2023-04-01T02:44:06;93841.22;;;12.33;66.46
3428;BME280;1727;42.624;23.406;2023-04-01T02:46:33;93846.16;;;12.36;66.81
3428;BME280;1727;42.624;23.406;2023-04-01T02:49:00;93854.03;;;12.36;66.46
3428;BME280;1727;42.624;23.406;2023-04-01T02:51:27;93851.09;;;12.23;66.32
3428;BME280;1727;42.624;23.406;2023-04-01T02:53:54;93861.63;;;12.23;66.13
3428;BME280;1727;42.624;23.406;2023-04-01T02:56:22;93874.13;;;12.29;66.54
3428;BME280;1727;42.624;23.406;2023-04-01T02:58:49;93874.59;;;12.33;65.98
3428;BME280;1727;42.624;23.406;2023-04-01T03:01:16;93880.84;;;12.40;66.39
3428;BME280;1727;42.624;23.406;2023-04-01T03:03:42;93875.09;;;12.36;66.92
3428;BME280;1727;42.624;23.406;2023-04-01T03:06:11;93877.41;;;12.23;67.27
3428;BME280;1727;42.624;23.406;2023-04-01T03:08:38;93881.84;;;12.23;67.20
3428;BME280;1727;42.624;23.406;2023-04-01T03:11:05;93899.75;;;12.27;67.54
3428;BME280;1727;42.624;23.406;2023-04-01T03:13:34;93886.94;;;11.92;68.69
3428;BME280;1727;42.624;23.406;2023-04-01T03:16:01;93896.66;;;11.49;70.38
3428;BME280;1727;42.624;23.406;2023-04-01T03:18:28;93901.78;;;11.59;70.17
3428;BME280;1727;42.624;23.406;2023-04-01T03:20:55;93870.28;;;11.16;72.08
3428;BME280;1727;42.624;23.406;2023-04-01T03:23:22;93893.66;;;11.28;71.94
3428;BME280;1727;42.624;23.406;2023-04-01T03:25:50;93881.84;;;11.40;71.78
3428;BME280;1727;42.624;23.406;2023-04-01T03:28:17;93883.66;;;11.31;72.24
3428;BME280;1727;42.624;23.406;2023-04-01T03:30:45;93891.31;;;11.25;71.59
3428;BME280;1727;42.624;23.406;2023-04-01T03:33:11;93891.63;;;11.13;72.21
3428;BME280;1727;42.624;23.406;2023-04-01T03:35:38;93871.78;;;10.85;71.84
3428;BME280;1727;42.624;23.406;2023-04-01T03:38:05;93868.94;;;10.70;74.01
3428;BME280;1727;42.624;23.406;2023-04-01T03:40:32;93881.47;;;10.84;73.04
3428;BME280;1727;42.624;23.406;2023-04-01T03:43:02;93879.91;;;11.00;73.03
3428;BME280;1727;42.624;23.406;2023-04-01T03:45:33;93879.47;;;11.12;72.72
3428;BME280;1727;42.624;23.406;2023-04-01T03:48:01;93884.09;;;11.27;72.37
3428;BME280;1727;42.624;23.406;2023-04-01T03:50:28;93879.66;;;11.19;71.44
3428;BME280;1727;42.624;23.406;2023-04-01T03:52:55;93871.94;;;11.17;70.53
3428;BME280;1727;42.624;23.406;2023-04-01T03:55:22;93866.53;;;11.27;70.34
3428;BME280;1727;42.624;23.406;2023-04-01T03:57:48;93854.59;;;11.33;69.47
3428;BME280;1727;42.624;23.406;2023-04-01T04:00:15;93850.84;;;11.43;69.77
3428;BME280;1727;42.624;23.406;2023-04-01T04:02:42;93828.03;;;11.52;68.91
3428;BME280;1727;42.624;23.406;2023-04-01T04:05:11;93827.03;;;11.53;69.56
3428;BME280;1727;42.624;23.406;2023-04-01T04:07:38;93821.00;;;11.69;69.72
3428;BME280;1727;42.624;23.406;2023-04-01T04:10:06;93808.69;;;11.77;68.99
3428;BME280;1727;42.624;23.406;2023-04-01T04:12:33;93802.56;;;11.44;69.21
3428;BME280;1727;42.624;23.406;2023-04-01T04:15:00;93793.38;;;11.32;69.07
3428;BME280;1727;42.624;23.406;2023-04-01T04:17:27;93795.34;;;11.38;67.65
3428;BME280;1727;42.624;23.406;2023-04-01T04:19:53;93779.91;;;11.35;67.68
3428;BME280;1727;42.624;23.406;2023-04-01T04:22:22;93767.44;;;11.45;66.87
3428;BME280;1727;42.624;23.406;2023-04-01T04:24:49;93754.97;;;11.56;66.38
3428;BME280;1727;42.624;23.406;2023-04-01T04:27:20;93760.56;;;11.69;66.69
3428;BME280;1727;42.624;23.406;2023-04-01T04:29:46;93768.44;;;11.85;66.34
3428;BME280;1727;42.624;23.406;2023-04-01T04:32:13;93759.09;;;11.99;65.95
3428;BME280;1727;42.624;23.406;2023-04-01T04:34:40;93747.41;;;12.01;65.24
3428;BME280;1727;42.624;23.406;2023-04-01T04:37:07;93746.75;;;12.07;64.36
3428;BME280;1727;42.624;23.406;2023-04-01T04:39:35;93736.72;;;12.11;63.96
3428;BME280;1727;42.624;23.406;2023-04-01T04:42:02;93737.19;;;12.23;64.10
3428;BME280;1727;42.624;23.406;2023-04-01T04:44:28;93728.66;;;12.21;63.30
3428;BME280;1727;42.624;23.406;2023-04-01T04:46:55;93728.44;;;12.30;63.65
3428;BME280;1727;42.624;23.406;2023-04-01T04:49:22;93717.72;;;12.40;63.77
3428;BME280;1727;42.624;23.406;2023-04-01T04:51:49;93713.91;;;12.51;63.91
3428;BME280;1727;42.624;23.406;2023-04-01T04:54:16;93709.13;;;12.54;61.95
3428;BME280;1727;42.624;23.406;2023-04-01T04:56:44;93709.34;;;12.45;60.96
3428;BME280;1727;42.624;23.406;2023-04-01T04:59:11;93699.97;;;12.42;60.36
3428;BME280;1727;42.624;23.406;2023-04-01T05:01:38;93701.94;;;12.48;59.88
3428;BME280;1727;42.624;23.406;2023-04-01T05:04:05;93705.03;;;12.52;59.24
3428;BME280;1727;42.624;23.406;2023-04-01T05:06:32;93697.78;;;12.54;60.35
3428;BME280;1727;42.624;23.406;2023-04-01T05:08:58;93702.00;;;12.63;59.96
3428;BME280;1727;42.624;23.406;2023-04-01T05:11:25;93700.03;;;12.65;60.04
3428;BME280;1727;42.624;23.406;2023-04-01T05:13:54;93690.19;;;12.59;60.74
3428;BME280;1727;42.624;23.406;2023-04-01T05:16:20;93690.25;;;12.43;61.33
3428;BME280;1727;42.624;23.406;2023-04-01T05:18:47;93676.78;;;12.37;62.33
3428;BME280;1727;42.624;23.406;2023-04-01T05:21:14;93692.22;;;12.40;62.27
3428;BME280;1727;42.624;23.406;2023-04-01T05:23:42;93683.63;;;12.16;63.44
3428;BME280;1727;42.624;23.406;2023-04-01T05:26:10;93670.63;;;12.22;63.55
3428;BME280;1727;42.624;23.406;2023-04-01T05:28:38;93670.16;;;12.10;63.85
3428;BME280;1727;42.624;23.406;2023-04-01T05:31:06;93661.34;;;12.34;63.85
3428;BME280;1727;42.624;23.406;2023-04-01T05:33:33;93661.31;;;12.51;63.29
3428;BME280;1727;42.624;23.406;2023-04-01T05:36:11;93672.53;;;12.67;62.62
3428;BME280;1727;42.624;23.406;2023-04-01T05:38:39;93662.44;;;13.10;61.38
3428;BME280;1727;42.624;23.406;2023-04-01T05:41:05;93656.59;;;13.46;59.53
3428;BME280;1727;42.624;23.406;2023-04-01T05:43:35;93654.50;;;13.93;58.94
3428;BME280;1727;42.624;23.406;2023-04-01T05:46:02;93648.94;;;14.62;56.97
3428;BME280;1727;42.624;23.406;2023-04-01T05:48:30;93664.38;;;15.37;55.82
3428;BME280;1727;42.624;23.406;2023-04-01T05:50:57;93644.84;;;16.16;51.27
3428;BME280;1727;42.624;23.406;2023-04-01T05:53:24;93668.28;;;16.88;50.21
3428;BME280;1727;42.624;23.406;2023-04-01T05:55:50;93645.72;;;17.12;50.00
3428;BME280;1727;42.624;23.406;2023-04-01T05:58:17;93652.31;;;17.55;48.92
3428;BME280;1727;42.624;23.406;2023-04-01T06:00:44;93645.63;;;17.73;47.79
3428;BME280;1727;42.624;23.406;2023-04-01T06:03:11;93630.28;;;17.55;48.05
3428;BME280;1727;42.624;23.406;2023-04-01T06:05:41;93642.72;;;17.48;47.84
3428;BME280;1727;42.624;23.406;2023-04-01T06:08:11;93620.69;;;17.54;46.55
3428;BME280;1727;42.624;23.406;2023-04-01T06:10:48;93626.19;;;17.52;47.88
3428;BME280;1727;42.624;23.406;2023-04-01T06:13:26;93623.72;;;17.24;47.56
3428;BME280;1727;42.624;23.406;2023-04-01T06:16:04;93616.00;;;17.36;48.09
3428;BME280;1727;42.624;23.406;2023-04-01T06:18:44;93639.22;;;17.34;48.30
3428;BME280;1727;42.624;23.406;2023-04-01T06:21:30;93636.34;;;17.09;48.49
3428;BME280;1727;42.624;23.406;2023-04-01T06:24:13;93641.09;;;16.66;49.19
3428;BME280;1727;42.624;23.406;2023-04-01T06:26:50;93635.56;;;15.92;52.27
3428;BME280;1727;42.624;23.406;2023-04-01T06:29:34;93640.78;;;15.85;52.37
3428;BME280;1727;42.624;23.406;2023-04-01T06:32:22;93640.25;;;15.47;52.67
3428;BME280;1727;42.624;23.406;2023-04-01T06:35:16;93640.78;;;15.14;53.86
3428;BME280;1727;42.624;23.406;2023-04-01T06:38:09;93620.69;;;14.99;54.51
3428;BME280;1727;42.624;23.406;2023-04-01T06:43:43;93630.78;;;14.74;56.34
3428;BME280;1727;42.624;23.406;2023-04-01T06:46:20;93631.47;;;14.61;57.10
3428;BME280;1727;42.624;23.406;2023-04-01T06:49:05;93623.19;;;14.35;57.51
3428;BME280;1727;42.624;23.406;2023-04-01T06:51:38;93612.84;;;14.18;57.89
3428;BME280;1727;42.624;23.406;2023-04-01T06:54:11;93610.09;;;14.12;58.82
3428;BME280;1727;42.624;23.406;2023-04-01T06:56:43;93594.72;;;13.86;60.44
3428;BME280;1727;42.624;23.406;2023-04-01T06:59:15;93596.72;;;13.84;60.49
3428;BME280;1727;42.624;23.406;2023-04-01T07:01:45;93591.44;;;13.84;60.56
3428;BME280;1727;42.624;23.406;2023-04-01T07:04:19;93605.22;;;13.94;61.22
3428;BME280;1727;42.624;23.406;2023-04-01T07:06:50;93587.19;;;13.98;61.67
3428;BME280;1727;42.624;23.406;2023-04-01T07:09:25;93591.28;;;14.00;61.82
3428;BME280;1727;42.624;23.406;2023-04-01T07:11:53;93594.81;;;14.07;61.96
3428;BME280;1727;42.624;23.406;2023-04-01T07:14:29;93589.81;;;14.12;62.35
3428;BME280;1727;42.624;23.406;2023-04-01T07:16:59;93593.72;;;14.16;62.34
3428;BME280;1727;42.624;23.406;2023-04-01T07:19:32;93592.06;;;14.30;62.15
3428;BME280;1727;42.624;23.406;2023-04-01T07:22:04;93564.69;;;14.31;61.74
3428;BME280;1727;42.624;23.406;2023-04-01T07:24:36;93568.06;;;14.25;62.50
3428;BME280;1727;42.624;23.406;2023-04-01T07:27:07;93564.25;;;14.27;62.43
3428;BME280;1727;42.624;23.406;2023-04-01T07:29:35;93572.03;;;14.36;62.52
3428;BME280;1727;42.624;23.406;2023-04-01T07:32:29;93575.06;;;14.33;62.60
3428;BME280;1727;42.624;23.406;2023-04-01T07:35:09;93576.63;;;14.27;63.52
3428;BME280;1727;42.624;23.406;2023-04-01T07:37:43;93577.44;;;14.27;64.08
3428;BME280;1727;42.624;23.406;2023-04-01T07:40:22;93576.06;;;14.32;64.13
3428;BME280;1727;42.624;23.406;2023-04-01T07:43:04;93582.59;;;14.36;64.17
3428;BME280;1727;42.624;23.406;2023-04-01T07:45:37;93583.31;;;14.44;63.80
3428;BME280;1727;42.624;23.406;2023-04-01T07:48:15;93584.88;;;14.53;63.48
3428;BME280;1727;42.624;23.406;2023-04-01T07:50:51;93571.50;;;14.55;63.84
3428;BME280;1727;42.624;23.406;2023-04-01T07:53:25;93576.91;;;14.68;62.83
3428;BME280;1727;42.624;23.406;2023-04-01T07:56:05;93573.16;;;14.77;62.67
3428;BME280;1727;42.624;23.406;2023-04-01T07:58:39;93577.06;;;14.81;62.75
3428;BME280;1727;42.624;23.406;2023-04-01T08:01:15;93575.66;;;14.85;63.04
3428;BME280;1727;42.624;23.406;2023-04-01T08:04:01;93561.88;;;14.90;62.28
3428;BME280;1727;42.624;23.406;2023-04-01T08:06:38;93563.91;;;14.88;62.65
3428;BME280;1727;42.624;23.406;2023-04-01T08:09:12;93571.00;;;14.87;62.91
3428;BME280;1727;42.624;23.406;2023-04-01T08:11:51;93563.09;;;14.87;63.47
3428;BME280;1727;42.624;23.406;2023-04-01T08:14:30;93565.97;;;14.93;63.37
3428;BME280;1727;42.624;23.406;2023-04-01T08:17:04;93567.66;;;15.00;63.16
3428;BME280;1727;42.624;23.406;2023-04-01T08:19:44;93552.44;;;15.02;63.71
3428;BME280;1727;42.624;23.406;2023-04-01T08:22:21;93561.66;;;15.06;62.13
3428;BME280;1727;42.624;23.406;2023-04-01T08:24:51;93560.50;;;15.15;62.82
3428;BME280;1727;42.624;23.406;2023-04-01T08:27:25;93536.75;;;15.22;62.50
3428;BME280;1727;42.624;23.406;2023-04-01T08:29:58;93528.25;;;15.27;62.41
3428;BME280;1727;42.624;23.406;2023-04-01T08:32:29;93510.19;;;15.30;61.65
3428;BME280;1727;42.624;23.406;2023-04-01T08:35:07;93514.72;;;15.36;61.44
3428;BME280;1727;42.624;23.406;2023-04-01T08:37:38;93517.22;;;15.44;61.61
3428;BME280;1727;42.624;23.406;2023-04-01T08:40:27;93494.91;;;15.54;61.72
3428;BME280;1727;42.624;23.406;2023-04-01T08:43:07;93489.88;;;15.59;60.63
3428;BME280;1727;42.624;23.406;2023-04-01T08:45:56;93474.16;;;15.57;60.68
3428;BME280;1727;42.624;23.406;2023-04-01T08:48:36;93462.03;;;15.63;60.55
3428;BME280;1727;42.624;23.406;2023-04-01T08:54:16;93459.28;;;15.84;60.72
3428;BME280;1727;42.624;23.406;2023-04-01T08:56:53;93470.06;;;15.89;60.78
3428;BME280;1727;42.624;23.406;2023-04-01T08:59:36;93465.25;;;15.99;60.74
3428;BME280;1727;42.624;23.406;2023-04-01T09:02:26;93463.44;;;16.06;59.60
3428;BME280;1727;42.624;23.406;2023-04-01T09:08:06;93457.72;;;16.03;58.23
3428;BME280;1727;42.624;23.406;2023-04-01T09:10:55;93466.09;;;16.06;58.77
3428;BME280;1727;42.624;23.406;2023-04-01T09:13:44;93469.56;;;16.07;57.97
3428;BME280;1727;42.624;23.406;2023-04-01T09:16:24;93461.00;;;16.11;57.86
3428;BME280;1727;42.624;23.406;2023-04-01T09:21:58;93454.28;;;16.09;57.12
3428;BME280;1727;42.624;23.406;2023-04-01T09:24:41;93458.34;;;16.05;56.11
3428;BME280;1727;42.624;23.406;2023-04-01T09:27:17;93457.56;;;16.11;55.67
3428;BME280;1727;42.624;23.406;2023-04-01T09:30:10;93446.75;;;16.13;55.70
3428;BME280;1727;42.624;23.406;2023-04-01T09:32:56;93442.28;;;16.13;54.34
3428;BME280;1727;42.624;23.406;2023-04-01T09:35:36;93439.22;;;16.09;54.86
3428;BME280;1727;42.624;23.406;2023-04-01T09:38:19;93428.66;;;16.16;54.44
3428;BME280;1727;42.624;23.406;2023-04-01T09:40:53;93428.91;;;16.21;54.43
3428;BME280;1727;42.624;23.406;2023-04-01T09:43:53;93426.00;;;16.16;54.44
3428;BME280;1727;42.624;23.406;2023-04-01T09:46:26;93433.53;;;16.06;54.17
3428;BME280;1727;42.624;23.406;2023-04-01T09:49:37;93430.69;;;16.07;54.65
3428;BME280;1727;42.624;23.406;2023-04-01T09:52:20;93432.72;;;16.19;54.89
3428;BME280;1727;42.624;23.406;2023-04-01T09:55:00;93415.47;;;16.36;55.16
3428;BME280;1727;42.624;23.406;2023-04-01T10:01:02;93403.25;;;16.28;54.98
3428;BME280;1727;42.624;23.406;2023-04-01T10:03:57;93402.03;;;16.24;55.01
3428;BME280;1727;42.624;23.406;2023-04-01T10:07:13;93407.53;;;16.36;55.11
3428;BME280;1727;42.624;23.406;2023-04-01T10:19:17;93378.84;;;16.53;55.45
3428;BME280;1727;42.624;23.406;2023-04-01T10:22:16;93395.50;;;16.47;55.56
3428;BME280;1727;42.624;23.406;2023-04-01T10:25:05;93393.50;;;16.55;55.28
3428;BME280;1727;42.624;23.406;2023-04-01T10:27:59;93362.53;;;16.42;53.99
3428;BME280;1727;42.624;23.406;2023-04-01T10:30:48;93365.56;;;16.33;54.64
3428;BME280;1727;42.624;23.406;2023-04-01T10:33:38;93380.66;;;16.39;55.57
3428;BME280;1727;42.624;23.406;2023-04-01T10:36:46;93350.31;;;16.35;55.53
3428;BME280;1727;42.624;23.406;2023-04-01T10:39:33;93369.84;;;16.21;55.29
3428;BME280;1727;42.624;23.406;2023-04-01T10:42:44;93357.22;;;16.23;53.84
3428;BME280;1727;42.624;23.406;2023-04-01T10:49:03;93340.50;;;16.16;55.37
3428;BME280;1727;42.624;23.406;2023-04-01T10:52:09;93351.53;;;16.26;56.87
3428;BME280;1727;42.624;23.406;2023-04-01T10:55:02;93322.22;;;16.27;54.68
3428;BME280;1727;42.624;23.406;2023-04-01T10:58:15;93322.59;;;16.18;53.59
3428;BME280;1727;42.624;23.406;2023-04-01T11:13:50;93313.88;;;16.50;49.14
3428;BME280;1727;42.624;23.406;2023-04-01T11:16:54;93306.09;;;16.62;47.25
3428;BME280;1727;42.624;23.406;2023-04-01T11:19:50;93304.69;;;16.72;46.62
3428;BME280;1727;42.624;23.406;2023-04-01T11:22:58;93309.34;;;16.90;44.52
3428;BME280;1727;42.624;23.406;2023-04-01T11:25:50;93290.38;;;17.00;44.32
3428;BME280;1727;42.624;23.406;2023-04-01T11:28:58;93303.78;;;17.05;43.44
3428;BME280;1727;42.624;23.406;2023-04-01T11:31:37;93303.00;;;17.11;45.62
3428;BME280;1727;42.624;23.406;2023-04-01T11:34:20;93307.88;;;17.14;46.55
3428;BME280;1727;42.624;23.406;2023-04-01T11:36:57;93321.34;;;17.13;45.67
3428;BME280;1727;42.624;23.406;2023-04-01T11:39:33;93339.69;;;17.14;45.15
3428;BME280;1727;42.624;23.406;2023-04-01T11:42:14;93357.22;;;17.15;45.27
3428;BME280;1727;42.624;23.406;2023-04-01T11:44:54;93415.31;;;17.10;47.66
3428;BME280;1727;42.624;23.406;2023-04-01T11:47:48;93440.81;;;16.85;54.53
3428;BME280;1727;42.624;23.406;2023-04-01T11:50:27;93479.06;;;16.56;59.70
3428;BME280;1727;42.624;23.406;2023-04-01T11:53:10;93495.44;;;16.18;65.12
3428;BME280;1727;42.624;23.406;2023-04-01T11:55:50;93512.50;;;15.68;67.29
3428;BME280;1727;42.624;23.406;2023-04-01T11:58:37;93538.75;;;15.41;70.71
3428;BME280;1727;42.624;23.406;2023-04-01T12:01:16;93561.50;;;15.14;73.88
3428;BME280;1727;42.624;23.406;2023-04-01T12:03:59;93568.88;;;14.76;75.58
3428;BME280;1727;42.624;23.406;2023-04-01T12:06:34;93587.69;;;14.52;78.22
3428;BME280;1727;42.624;23.406;2023-04-01T12:09:06;93587.53;;;14.24;80.78
3428;BME280;1727;42.624;23.406;2023-04-01T12:11:43;93542.06;;;14.07;82.03
3428;BME280;1727;42.624;23.406;2023-04-01T12:14:17;93554.16;;;13.87;84.52
3428;BME280;1727;42.624;23.406;2023-04-01T12:16:54;93579.81;;;13.78;87.47
3428;BME280;1727;42.624;23.406;2023-04-01T12:19:28;93572.56;;;13.66;89.00
3428;BME280;1727;42.624;23.406;2023-04-01T12:22:29;93578.88;;;13.56;91.54
3428;BME280;1727;42.624;23.406;2023-04-01T12:25:12;93576.25;;;13.56;91.07
3428;BME280;1727;42.624;23.406;2023-04-01T12:27:58;93562.63;;;13.53;92.50
3428;BME280;1727;42.624;23.406;2023-04-01T12:30:42;93555.72;;;13.52;93.58
3428;BME280;1727;42.624;23.406;2023-04-01T12:33:35;93549.34;;;13.46;94.32
3428;BME280;1727;42.624;23.406;2023-04-01T12:36:17;93539.28;;;13.35;90.00
3428;BME280;1727;42.624;23.406;2023-04-01T12:38:55;93543.59;;;13.28;90.37
3428;BME280;1727;42.624;23.406;2023-04-01T12:41:32;93556.44;;;13.31;89.07
3428;BME280;1727;42.624;23.406;2023-04-01T12:44:33;93564.34;;;13.31;88.87
3428;BME280;1727;42.624;23.406;2023-04-01T12:47:17;93583.19;;;13.20;89.03
3428;BME280;1727;42.624;23.406;2023-04-01T12:50:00;93573.97;;;13.16;91.78
3428;BME280;1727;42.624;23.406;2023-04-01T12:52:40;93573.59;;;13.04;91.59
3428;BME280;1727;42.624;23.406;2023-04-01T12:55:33;93575.91;;;12.99;94.03
3428;BME280;1727;42.624;23.406;2023-04-01T13:01:52;93556.91;;;12.43;99.32
3428;BME280;1727;42.624;23.406;2023-04-01T13:04:40;93566.94;;;12.39;100.00
3428;BME280;1727;42.624;23.406;2023-04-01T13:07:23;93557.66;;;12.29;98.14
3428;BME280;1727;42.624;23.406;2023-04-01T13:09:59;93549.06;;;12.35;96.74
3428;BME280;1727;42.624;23.406;2023-04-01T13:12:42;93548.97;;;12.51;96.53
3428;BME280;1727;42.624;23.406;2023-04-01T13:15:23;93562.66;;;12.69;95.12
3428;BME280;1727;42.624;23.406;2023-04-01T13:17:58;93557.09;;;12.87;92.49
3428;BME280;1727;42.624;23.406;2023-04-01T13:20:40;93522.56;;;13.05;92.52
3428;BME280;1727;42.624;23.406;2023-04-01T13:23:20;93486.06;;;13.02;95.41
3428;BME280;1727;42.624;23.406;2023-04-01T13:25:57;93472.34;;;13.07;98.12
3428;BME280;1727;42.624;23.406;2023-04-01T13:28:28;93474.19;;;13.21;86.39
3428;BME280;1727;42.624;23.406;2023-04-01T13:31:00;93452.84;;;13.45;87.36
3428;BME280;1727;42.624;23.406;2023-04-01T13:33:36;93452.63;;;13.76;86.41
3428;BME280;1727;42.624;23.406;2023-04-01T13:36:13;93451.56;;;14.07;80.79
3428;BME280;1727;42.624;23.406;2023-04-01T13:39:20;93446.56;;;14.33;74.63
3428;BME280;1727;42.624;23.406;2023-04-01T13:42:06;93438.31;;;14.57;74.17
3428;BME280;1727;42.624;23.406;2023-04-01T13:44:42;93437.28;;;14.80;69.68
3428;BME280;1727;42.624;23.406;2023-04-01T13:47:43;93425.94;;;14.86;62.96
3428;BME280;1727;42.624;23.406;2023-04-01T13:50:29;93426.53;;;15.09;65.00
3428;BME280;1727;42.624;23.406;2023-04-01T13:53:30;93444.28;;;15.22;61.10
3428;BME280;1727;42.624;23.406;2023-04-01T13:56:16;93446.06;;;15.49;70.54
3428;BME280;1727;42.624;23.406;2023-04-01T13:59:02;93429.50;;;15.62;70.23
3428;BME280;1727;42.624;23.406;2023-04-01T14:01:37;93432.56;;;15.03;81.57
3428;BME280;1727;42.624;23.406;2023-04-01T14:04:44;93434.72;;;14.93;85.45
3428;BME280;1727;42.624;23.406;2023-04-01T14:07:38;93407.56;;;14.29;87.99
3428;BME280;1727;42.624;23.406;2023-04-01T14:10:18;93413.84;;;14.27;87.25
3428;BME280;1727;42.624;23.406;2023-04-01T14:12:57;93419.25;;;14.19;86.56
3428;BME280;1727;42.624;23.406;2023-04-01T14:15:38;93407.03;;;13.97;88.41
3428;BME280;1727;42.624;23.406;2023-04-01T14:18:27;93415.34;;;13.79;88.07
3428;BME280;1727;42.624;23.406;2023-04-01T14:21:13;93425.56;;;14.04;88.51
3428;BME280;1727;42.624;23.406;2023-04-01T14:24:09;93410.06;;;14.15;89.56
3428;BME280;1727;42.624;23.406;2023-04-01T14:27:09;93414.50;;;13.93;89.66
3428;BME280;1727;42.624;23.406;2023-04-01T14:29:52;93400.69;;;13.55;90.88
3428;BME280;1727;42.624;23.406;2023-04-01T14:32:30;93383.09;;;13.41;92.34
3428;BME280;1727;42.624;23.406;2023-04-01T14:35:16;93393.06;;;13.46;93.01
3428;BME280;1727;42.624;23.406;2023-04-01T14:38:00;93398.41;;;13.52;92.95
3428;BME280;1727;42.624;23.406;2023-04-01T14:40:44;93384.97;;;13.47;91.41
3428;BME280;1727;42.624;23.406;2023-04-01T14:47:02;93386.16;;;13.59;90.31
3428;BME280;1727;42.624;23.406;2023-04-01T14:49:35;93379.97;;;13.52;91.15